createdAt,value
2023-05-09T00:00:22.120Z,17.37
2023-05-09T00:02:49.747Z,17.47
2023-05-09T00:05:17.372Z,17.70
2023-05-09T00:07:44.964Z,16.57
2023-05-09T00:10:13.919Z,18.07
2023-05-09T00:12:43.590Z,18.57
2023-05-09T00:15:13.000Z,17.37
2023-05-09T00:17:40.897Z,17.60
2023-05-09T00:20:12.176Z,17.57
2023-05-09T00:22:40.461Z,18.83
2023-05-09T00:25:09.201Z,17.63
2023-05-09T00:27:38.214Z,17.77
2023-05-09T00:30:07.271Z,18.07
2023-05-09T00:32:35.073Z,18.63
2023-05-09T00:35:03.364Z,18.40
2023-05-09T00:37:32.280Z,17.90
2023-05-09T00:39:59.906Z,19.10
2023-05-09T00:42:30.223Z,18.53
2023-05-09T00:44:59.249Z,18.40
2023-05-09T00:47:28.726Z,17.77
2023-05-09T00:49:58.014Z,18.43
2023-05-09T00:52:26.131Z,18.50
2023-05-09T00:54:54.144Z,19.10
2023-05-09T00:57:21.732Z,18.97
2023-05-09T00:59:49.457Z,19.87
2023-05-09T01:02:19.151Z,19.73
2023-05-09T01:04:47.323Z,20.33
2023-05-09T01:07:20.332Z,19.77
2023-05-09T01:09:57.748Z,19.10
2023-05-09T01:12:32.107Z,20.83
2023-05-09T01:15:07.160Z,20.03
2023-05-09T01:17:39.948Z,19.40
2023-05-09T01:20:13.922Z,20.13
2023-05-09T01:22:45.473Z,20.60
2023-05-09T01:25:46.308Z,18.83
2023-05-09T01:28:15.587Z,17.47
2023-05-09T01:30:46.888Z,20.60
2023-05-09T01:33:18.220Z,18.60
2023-05-09T01:35:48.175Z,19.53
2023-05-09T01:38:18.908Z,20.27
2023-05-09T01:40:49.232Z,21.30
2023-05-09T01:43:18.151Z,21.77
2023-05-09T01:45:47.573Z,23.00
2023-05-09T01:48:15.621Z,21.77
2023-05-09T01:50:44.677Z,23.23
2023-05-09T01:53:13.006Z,22.30
2023-05-09T01:55:41.276Z,21.97
2023-05-09T01:58:09.340Z,22.83
2023-05-09T02:00:37.811Z,25.70
2023-05-09T02:03:07.273Z,23.20
2023-05-09T02:05:35.873Z,23.90
2023-05-09T02:08:03.877Z,26.33
2023-05-09T02:10:31.988Z,23.57
2023-05-09T02:12:59.702Z,22.23
2023-05-09T02:15:27.332Z,23.57
2023-05-09T02:17:54.986Z,22.33
2023-05-09T02:20:23.921Z,21.83
2023-05-09T02:22:51.803Z,21.47
2023-05-09T02:25:19.502Z,23.10
2023-05-09T02:27:47.730Z,22.53
2023-05-09T02:30:20.593Z,24.77
2023-05-09T02:32:50.134Z,23.17
2023-05-09T02:35:19.576Z,21.27
2023-05-09T02:37:49.079Z,21.93
2023-05-09T02:40:16.732Z,22.17
2023-05-09T02:42:44.288Z,21.50
2023-05-09T02:45:12.511Z,25.53
2023-05-09T02:47:40.831Z,21.67
2023-05-09T02:50:09.350Z,21.63
2023-05-09T02:52:37.182Z,21.23
2023-05-09T02:55:07.503Z,22.43
2023-05-09T02:57:35.235Z,20.10
2023-05-09T03:00:02.801Z,21.93
2023-05-09T03:02:30.801Z,23.33
2023-05-09T03:04:58.478Z,22.13
2023-05-09T03:07:26.114Z,22.53
2023-05-09T03:09:53.686Z,22.43
2023-05-09T03:12:22.555Z,21.40
2023-05-09T03:14:50.085Z,21.97
2023-05-09T03:17:21.174Z,21.67
2023-05-09T03:19:49.177Z,21.60
2023-05-09T03:22:16.947Z,21.33
2023-05-09T03:24:44.574Z,22.30
2023-05-09T03:27:12.142Z,22.00
2023-05-09T03:29:41.061Z,22.03
2023-05-09T03:32:08.634Z,23.07
2023-05-09T03:34:36.252Z,21.10
2023-05-09T03:37:03.872Z,22.37
2023-05-09T03:39:31.499Z,21.40
2023-05-09T03:41:59.028Z,23.73
2023-05-09T03:44:26.872Z,22.87
2023-05-09T03:46:55.876Z,22.40
2023-05-09T03:49:23.470Z,22.00
2023-05-09T03:51:51.025Z,21.20
2023-05-09T03:54:18.610Z,21.50
2023-05-09T03:56:46.145Z,21.90
2023-05-09T03:59:13.737Z,24.93
2023-05-09T04:01:41.523Z,20.80
2023-05-09T04:04:10.485Z,21.53
2023-05-09T04:06:38.313Z,21.47
2023-05-09T04:09:06.598Z,21.13
2023-05-09T04:11:34.358Z,23.10
2023-05-09T04:14:01.963Z,21.60
2023-05-09T04:16:29.597Z,21.23
2023-05-09T04:18:57.259Z,21.47
2023-05-09T04:21:26.212Z,22.07
2023-05-09T04:23:53.748Z,21.90
2023-05-09T04:26:22.591Z,24.17
2023-05-09T04:28:50.802Z,23.47
2023-05-09T04:31:19.302Z,24.27
2023-05-09T04:33:46.987Z,23.53
2023-05-09T04:36:14.443Z,23.93
2023-05-09T04:38:43.322Z,24.67
2023-05-09T04:41:10.947Z,24.97
2023-05-09T04:43:38.564Z,24.83
2023-05-09T04:46:07.746Z,24.20
2023-05-09T04:48:35.872Z,24.73
2023-05-09T04:51:03.564Z,24.97
2023-05-09T04:53:31.912Z,24.50
2023-05-09T04:56:00.902Z,24.40
2023-05-09T04:58:28.457Z,23.73
2023-05-09T05:00:56.082Z,25.30
2023-05-09T05:03:23.650Z,28.60
2023-05-09T05:05:51.337Z,24.33
2023-05-09T05:08:18.948Z,27.43
2023-05-09T05:10:47.483Z,23.77
2023-05-09T05:13:16.507Z,23.83
2023-05-09T05:15:44.212Z,25.20
2023-05-09T05:18:11.856Z,26.17
2023-05-09T05:20:41.368Z,25.40
2023-05-09T05:23:08.908Z,23.30
2023-05-09T05:25:36.523Z,25.20
2023-05-09T05:28:04.111Z,25.90
2023-05-09T05:30:34.310Z,26.80
2023-05-09T05:33:02.304Z,27.10
2023-05-09T05:35:29.977Z,24.63
2023-05-09T05:37:57.539Z,26.63
2023-05-09T05:40:25.199Z,25.60
2023-05-09T05:42:52.828Z,25.47
2023-05-09T05:45:20.668Z,31.10
2023-05-09T05:47:49.639Z,25.73
2023-05-09T05:50:17.652Z,24.97
2023-05-09T05:52:45.223Z,24.13
2023-05-09T05:55:13.023Z,23.13
2023-05-09T05:57:40.828Z,23.07
2023-05-09T06:00:11.068Z,22.83
2023-05-09T06:02:38.952Z,22.40
2023-05-09T06:05:09.217Z,22.30
2023-05-09T06:07:36.786Z,23.57
2023-05-09T06:10:04.981Z,23.47
2023-05-09T06:12:32.541Z,23.03
2023-05-09T06:15:00.558Z,23.37
2023-05-09T06:17:28.138Z,22.53
2023-05-09T06:19:55.849Z,22.93
2023-05-09T06:22:24.758Z,23.10
2023-05-09T06:24:52.319Z,23.70
2023-05-09T06:27:19.949Z,22.97
2023-05-09T06:29:47.543Z,24.23
2023-05-09T06:32:15.108Z,23.17
2023-05-09T06:34:42.936Z,22.83
2023-05-09T06:37:10.661Z,22.83
2023-05-09T06:39:39.612Z,26.10
2023-05-09T06:42:07.513Z,24.97
2023-05-09T06:44:35.097Z,26.87
2023-05-09T06:47:02.678Z,25.03
2023-05-09T06:49:30.247Z,22.90
2023-05-09T06:51:57.787Z,24.77
2023-05-09T06:54:25.375Z,24.37
2023-05-09T06:56:54.343Z,23.80
2023-05-09T06:59:21.935Z,23.10
2023-05-09T07:01:49.607Z,24.23
2023-05-09T07:04:17.237Z,30.80
2023-05-09T07:06:44.823Z,28.63
2023-05-09T07:09:14.918Z,28.33
2023-05-09T07:11:42.464Z,29.53
2023-05-09T07:14:11.335Z,30.77
2023-05-09T07:16:38.940Z,31.87
2023-05-09T07:19:06.578Z,29.43
2023-05-09T07:21:34.653Z,29.37
2023-05-09T07:24:02.432Z,28.23
2023-05-09T07:26:30.084Z,27.23
2023-05-09T07:28:57.625Z,28.63
2023-05-09T07:31:26.678Z,26.83
2023-05-09T07:33:54.315Z,28.30
2023-05-09T07:36:21.905Z,29.03
2023-05-09T07:38:52.153Z,26.43
2023-05-09T07:41:19.825Z,27.73
2023-05-09T07:43:47.437Z,27.90
2023-05-09T07:46:15.042Z,26.93
2023-05-09T07:48:43.987Z,28.30
2023-05-09T07:51:11.608Z,26.90
2023-05-09T07:53:39.242Z,26.47
2023-05-09T07:56:07.870Z,25.53
2023-05-09T07:58:35.524Z,24.57
2023-05-09T08:01:03.111Z,25.63
2023-05-09T08:03:30.858Z,25.57
2023-05-09T08:06:00.380Z,23.53
2023-05-09T08:08:28.355Z,23.97
2023-05-09T08:10:56.908Z,23.43
2023-05-09T08:13:24.613Z,23.23
2023-05-09T08:15:52.400Z,21.97
2023-05-09T08:18:20.009Z,20.73
2023-05-09T08:20:47.601Z,22.90
2023-05-09T08:23:16.546Z,21.00
2023-05-09T08:25:44.453Z,22.30
2023-05-09T08:28:12.120Z,23.27
2023-05-09T08:30:40.577Z,21.50
2023-05-09T08:33:08.229Z,21.40
2023-05-09T08:35:35.878Z,20.67
2023-05-09T08:38:03.715Z,20.87
2023-05-09T08:40:36.672Z,21.60
2023-05-09T08:43:04.804Z,21.83
2023-05-09T08:45:34.764Z,22.30
2023-05-09T08:48:03.826Z,20.67
2023-05-09T08:50:31.490Z,21.30
2023-05-09T08:52:59.125Z,21.70
2023-05-09T08:55:27.628Z,21.50
2023-05-09T08:57:56.633Z,20.77
2023-05-09T09:00:24.666Z,20.93
2023-05-09T09:02:53.106Z,22.83
2023-05-09T09:05:39.979Z,22.27
2023-05-09T09:08:09.028Z,22.00
2023-05-09T09:10:36.978Z,21.43
2023-05-09T09:13:06.520Z,21.30
2023-05-09T09:15:37.019Z,22.40
2023-05-09T09:18:09.102Z,23.77
2023-05-09T09:20:38.706Z,21.20
2023-05-09T09:23:10.455Z,21.73
2023-05-09T09:25:38.127Z,21.83
2023-05-09T09:28:07.325Z,20.97
2023-05-09T09:30:34.938Z,19.57
2023-05-09T09:33:02.917Z,19.90
2023-05-09T09:35:30.574Z,20.00
2023-05-09T09:38:00.153Z,19.27
2023-05-09T09:40:27.950Z,20.07
2023-05-09T09:42:55.518Z,22.27
2023-05-09T09:45:24.656Z,21.43
2023-05-09T09:47:52.926Z,22.67
2023-05-09T09:50:23.167Z,21.23
2023-05-09T09:52:52.190Z,25.93
2023-05-09T09:55:20.237Z,21.50
2023-05-09T09:57:48.469Z,20.20
2023-05-09T10:00:18.450Z,21.13
2023-05-09T10:02:51.748Z,21.27
2023-05-09T10:05:23.040Z,22.03
2023-05-09T10:07:58.151Z,20.93
2023-05-09T10:10:27.719Z,24.93
2023-05-09T10:12:57.725Z,20.47
2023-05-09T10:15:27.650Z,21.37
2023-05-09T10:17:58.987Z,20.43
2023-05-09T10:20:26.951Z,20.87
2023-05-09T10:22:57.808Z,21.53
2023-05-09T10:25:29.109Z,18.33
2023-05-09T10:27:58.966Z,18.93
2023-05-09T10:30:30.295Z,17.37
2023-05-09T10:33:04.731Z,19.20
2023-05-09T10:35:34.892Z,19.67
2023-05-09T10:38:02.824Z,19.53
2023-05-09T10:40:32.052Z,19.13
2023-05-09T10:42:59.635Z,18.87
2023-05-09T10:45:27.325Z,18.23
2023-05-09T10:47:56.454Z,19.37
2023-05-09T10:50:26.170Z,18.57
2023-05-09T10:53:06.960Z,20.20
2023-05-09T10:55:38.961Z,20.43
2023-05-09T10:58:20.971Z,16.97
2023-05-09T11:00:48.697Z,17.33
2023-05-09T11:03:17.011Z,18.03
2023-05-09T11:05:46.482Z,17.90
2023-05-09T11:08:25.364Z,16.77
2023-05-09T11:10:53.488Z,14.60
2023-05-09T11:13:23.492Z,14.60
2023-05-09T11:15:52.647Z,12.37
2023-05-09T11:18:20.297Z,11.00
2023-05-09T11:20:51.360Z,10.80
2023-05-09T11:23:20.268Z,9.50
2023-05-09T11:25:48.376Z,10.50
2023-05-09T11:28:28.096Z,10.73
2023-05-09T11:31:10.181Z,13.23
2023-05-09T11:33:39.107Z,12.90
2023-05-09T11:36:18.953Z,12.00
2023-05-09T11:38:47.484Z,11.33
2023-05-09T11:41:15.645Z,17.00
2023-05-09T11:43:44.313Z,17.77
2023-05-09T11:46:12.725Z,16.00
2023-05-09T11:48:41.890Z,14.03
2023-05-09T11:51:19.012Z,15.13
2023-05-09T11:53:47.272Z,14.73
2023-05-09T11:56:15.541Z,14.57
2023-05-09T11:58:44.086Z,14.93
2023-05-09T12:01:12.612Z,14.63
2023-05-09T12:03:44.137Z,15.87
2023-05-09T12:06:15.907Z,15.40
2023-05-09T12:08:45.018Z,15.97
2023-05-09T12:11:12.847Z,16.27
2023-05-09T12:13:46.851Z,16.37
2023-05-09T12:16:14.431Z,16.17
2023-05-09T12:18:45.979Z,14.07
2023-05-09T12:21:13.613Z,15.10
2023-05-09T12:23:41.180Z,14.83
2023-05-09T12:26:11.001Z,15.70
2023-05-09T12:28:38.732Z,16.77
2023-05-09T12:31:07.194Z,14.47
2023-05-09T12:33:34.970Z,14.83
2023-05-09T12:36:04.213Z,13.30
2023-05-09T12:38:31.876Z,13.37
2023-05-09T12:41:03.989Z,14.53
2023-05-09T12:43:34.087Z,14.50
2023-05-09T12:46:02.918Z,13.10
2023-05-09T12:48:31.470Z,11.97
2023-05-09T12:51:03.648Z,10.37
2023-05-09T12:53:32.059Z,11.43
2023-05-09T12:56:02.889Z,10.97
2023-05-09T12:58:32.958Z,10.37
2023-05-09T13:01:01.135Z,11.03
2023-05-09T13:03:31.169Z,13.37
2023-05-09T13:05:59.816Z,13.07
2023-05-09T13:08:27.530Z,13.47
2023-05-09T13:11:03.876Z,11.37
2023-05-09T13:13:43.578Z,11.40
2023-05-09T13:16:13.287Z,11.83
2023-05-09T13:18:42.524Z,13.63
2023-05-09T13:21:10.086Z,10.93
2023-05-09T13:23:37.663Z,7.90
2023-05-09T13:26:05.409Z,7.47
2023-05-09T13:28:32.966Z,7.20
2023-05-09T13:31:02.943Z,7.07
2023-05-09T13:33:30.680Z,7.43
2023-05-09T13:35:58.397Z,7.87
2023-05-09T13:38:26.531Z,9.00
2023-05-09T13:40:54.099Z,10.37
2023-05-09T13:43:21.700Z,11.63
2023-05-09T13:45:49.357Z,11.63
2023-05-09T13:48:18.345Z,11.57
2023-05-09T13:50:45.936Z,10.47
2023-05-09T13:53:13.577Z,9.03
2023-05-09T13:55:41.147Z,8.90
2023-05-09T13:58:08.819Z,8.27
2023-05-09T14:00:36.948Z,8.47
2023-05-09T14:03:04.640Z,8.80
2023-05-09T14:05:33.875Z,9.07
2023-05-09T14:08:02.108Z,9.80
2023-05-09T14:10:29.812Z,10.73
2023-05-09T14:12:57.640Z,8.83
2023-05-09T14:15:25.327Z,9.27
2023-05-09T14:17:52.945Z,10.27
2023-05-09T14:20:21.278Z,8.30
2023-05-09T14:22:50.251Z,9.63
2023-05-09T14:25:17.914Z,9.23
2023-05-09T14:27:45.475Z,9.47
2023-05-09T14:30:14.054Z,9.13
2023-05-09T14:32:41.781Z,9.37
2023-05-09T14:35:10.297Z,10.07
2023-05-09T14:37:38.066Z,10.07
2023-05-09T14:40:09.628Z,9.73
2023-05-09T14:42:37.815Z,9.43
2023-05-09T14:45:07.238Z,11.37
2023-05-09T14:47:34.848Z,11.27
2023-05-09T14:50:02.466Z,11.37
2023-05-09T14:52:30.007Z,9.20
2023-05-09T14:54:59.629Z,10.80
2023-05-09T14:57:29.188Z,10.63
2023-05-09T15:00:03.160Z,10.70
2023-05-09T15:02:36.779Z,11.53
2023-05-09T15:05:04.583Z,9.83
2023-05-09T15:07:32.172Z,10.07
2023-05-09T15:09:59.722Z,10.33
2023-05-09T15:12:28.590Z,9.13
2023-05-09T15:14:56.304Z,9.63
2023-05-09T15:17:23.904Z,9.30
2023-05-09T15:19:51.498Z,9.60
2023-05-09T15:22:19.040Z,7.07
2023-05-09T15:24:46.651Z,8.10
2023-05-09T15:27:14.419Z,6.97
2023-05-09T15:29:44.294Z,7.40
2023-05-09T15:32:11.856Z,6.90
2023-05-09T15:34:39.449Z,6.60
2023-05-09T15:37:07.523Z,7.13
2023-05-09T15:39:36.428Z,6.83
2023-05-09T15:42:07.191Z,6.93
2023-05-09T15:44:35.568Z,7.30
2023-05-09T15:47:05.037Z,7.07
2023-05-09T15:49:33.030Z,10.90
2023-05-09T15:52:00.988Z,7.27
2023-05-09T15:54:28.879Z,6.83
2023-05-09T15:56:56.848Z,7.10
2023-05-09T15:59:24.564Z,6.93
2023-05-09T16:01:52.315Z,7.17
2023-05-09T16:04:21.619Z,6.97
2023-05-09T16:06:49.813Z,6.70
2023-05-09T16:09:17.428Z,6.60
2023-05-09T16:11:45.013Z,6.50
2023-05-09T16:14:12.994Z,7.10
2023-05-09T16:16:41.083Z,7.47
2023-05-09T16:19:09.628Z,7.53
2023-05-09T16:21:39.253Z,7.23
2023-05-09T16:24:08.770Z,7.30
2023-05-09T16:26:36.631Z,7.30
2023-05-09T16:29:04.495Z,8.30
2023-05-09T16:31:35.387Z,8.47
2023-05-09T16:34:03.379Z,8.27
2023-05-09T16:36:32.711Z,6.93
2023-05-09T16:39:01.886Z,8.07
2023-05-09T16:41:29.614Z,6.70
2023-05-09T16:43:57.235Z,7.47
2023-05-09T16:46:24.931Z,7.33
2023-05-09T16:48:53.069Z,7.70
2023-05-09T16:51:20.692Z,9.20
2023-05-09T16:53:48.211Z,6.87
2023-05-09T16:56:17.157Z,2.57
2023-05-09T16:58:44.891Z,2.47
2023-05-09T17:01:12.562Z,1.53
2023-05-09T17:03:40.293Z,2.80
2023-05-09T17:06:08.282Z,2.50
2023-05-09T17:08:35.792Z,1.83
2023-05-09T17:11:03.447Z,1.77
2023-05-09T17:13:32.391Z,2.93
2023-05-09T17:16:00.204Z,2.67
2023-05-09T17:18:36.488Z,2.77
2023-05-09T17:21:05.572Z,1.57
2023-05-09T17:23:33.151Z,2.57
2023-05-09T17:26:00.761Z,1.60
2023-05-09T17:28:28.690Z,1.77
2023-05-09T17:30:59.034Z,5.20
2023-05-09T17:33:26.742Z,2.67
2023-05-09T17:35:54.569Z,3.33
2023-05-09T17:38:22.173Z,4.37
2023-05-09T17:40:49.952Z,2.17
2023-05-09T17:43:17.742Z,2.60
2023-05-09T17:45:46.236Z,3.30
2023-05-09T17:48:15.873Z,3.50
2023-05-09T17:50:43.698Z,3.10
2023-05-09T17:53:11.263Z,3.53
2023-05-09T17:55:38.852Z,4.50
2023-05-09T17:58:06.766Z,4.57
2023-05-09T18:00:34.491Z,3.93
2023-05-09T18:03:03.874Z,3.10
2023-05-09T18:05:32.993Z,3.30
2023-05-09T18:08:01.196Z,3.53
2023-05-09T18:10:29.266Z,3.40
2023-05-09T18:12:57.074Z,3.90
2023-05-09T18:15:26.113Z,5.57
2023-05-09T18:17:54.605Z,5.27
2023-05-09T18:20:22.386Z,3.80
2023-05-09T18:22:51.318Z,5.63
2023-05-09T18:25:18.946Z,5.13
2023-05-09T18:27:46.605Z,3.97
2023-05-09T18:30:14.741Z,5.37
2023-05-09T18:32:42.793Z,4.30
2023-05-09T18:35:11.049Z,5.53
2023-05-09T18:37:39.002Z,5.03
2023-05-09T18:40:10.678Z,5.53
2023-05-09T18:42:38.325Z,7.40
2023-05-09T18:45:07.051Z,5.10
2023-05-09T18:47:34.739Z,4.20
2023-05-09T18:50:04.034Z,3.47
2023-05-09T18:52:32.363Z,5.93
2023-05-09T18:55:00.469Z,3.70
2023-05-09T18:57:29.420Z,4.27
2023-05-09T18:59:57.045Z,3.17
2023-05-09T19:02:24.831Z,5.37
2023-05-09T19:04:52.581Z,7.87
2023-05-09T19:07:20.134Z,3.07
2023-05-09T19:09:47.773Z,2.73
2023-05-09T19:12:16.367Z,3.73
2023-05-09T19:14:45.357Z,4.07
2023-05-09T19:17:13.022Z,3.23
2023-05-09T19:19:40.588Z,2.93
2023-05-09T19:22:08.225Z,3.97
2023-05-09T19:24:35.967Z,2.77
2023-05-09T19:27:04.081Z,2.80
2023-05-09T19:29:31.645Z,3.03
2023-05-09T19:32:01.265Z,2.93
2023-05-09T19:34:30.559Z,3.20
2023-05-09T19:36:58.201Z,3.00
2023-05-09T19:39:25.848Z,3.50
2023-05-09T19:41:53.510Z,4.30
2023-05-09T19:44:21.550Z,3.07
2023-05-09T19:46:49.517Z,4.00
2023-05-09T19:49:18.548Z,3.27
2023-05-09T19:51:46.197Z,3.83
2023-05-09T19:54:14.178Z,3.10
2023-05-09T19:56:41.888Z,3.77
2023-05-09T19:59:09.578Z,2.37
2023-05-09T20:01:37.186Z,2.40
2023-05-09T20:04:04.998Z,3.87
2023-05-09T20:06:34.044Z,2.20
2023-05-09T20:09:01.700Z,3.27
2023-05-09T20:11:29.283Z,2.50
2023-05-09T20:13:57.632Z,3.40
2023-05-09T20:16:25.356Z,3.80
2023-05-09T20:18:54.979Z,5.10
2023-05-09T20:21:22.630Z,3.07
2023-05-09T20:23:51.649Z,3.90
2023-05-09T20:26:19.253Z,2.73
2023-05-09T20:28:46.848Z,2.27
2023-05-09T20:31:14.465Z,2.80
2023-05-09T20:33:42.120Z,2.43
2023-05-09T20:36:11.053Z,2.10
2023-05-09T20:38:38.694Z,3.43
2023-05-09T20:41:07.599Z,2.80
2023-05-09T20:43:35.471Z,1.73
2023-05-09T20:46:03.071Z,3.47
2023-05-09T20:48:31.117Z,3.57
2023-05-09T20:50:58.812Z,2.10
2023-05-09T20:53:27.665Z,5.80
2023-05-09T20:55:55.347Z,1.90
2023-05-09T20:58:24.527Z,2.23
2023-05-09T21:00:52.123Z,3.47
2023-05-09T21:03:20.154Z,1.90
2023-05-09T21:05:47.779Z,2.07
2023-05-09T21:08:15.402Z,2.20
2023-05-09T21:10:43.136Z,2.10
2023-05-09T21:13:10.801Z,2.40
2023-05-09T21:15:39.821Z,2.60
2023-05-09T21:18:07.450Z,3.93
2023-05-09T21:20:35.116Z,2.47
2023-05-09T21:23:02.692Z,2.80
2023-05-09T21:25:30.428Z,3.47
2023-05-09T21:27:58.028Z,2.40
2023-05-09T21:30:25.735Z,2.33
2023-05-09T21:32:54.741Z,3.67
2023-05-09T21:35:22.531Z,2.27
2023-05-09T21:37:50.559Z,6.53
2023-05-09T21:40:18.573Z,5.17
2023-05-09T21:42:46.231Z,2.30
2023-05-09T21:45:13.878Z,3.13
2023-05-09T21:47:41.573Z,3.73
2023-05-09T21:50:11.462Z,5.07
2023-05-09T21:52:38.996Z,2.20
2023-05-09T21:55:07.172Z,3.97
2023-05-09T21:57:34.742Z,2.17
2023-05-09T22:00:05.233Z,1.30
2023-05-09T22:02:34.095Z,2.63
2023-05-09T22:05:02.109Z,1.20
2023-05-09T22:07:31.193Z,2.33
2023-05-09T22:09:58.829Z,0.63
2023-05-09T22:12:26.741Z,0.40
2023-05-09T22:14:56.624Z,0.33
2023-05-09T22:17:25.035Z,1.20
2023-05-09T22:19:52.978Z,1.77
2023-05-09T22:22:21.227Z,0.67
2023-05-09T22:24:50.426Z,0.40
2023-05-09T22:27:18.025Z,2.30
2023-05-09T22:29:46.499Z,0.87
2023-05-09T22:32:14.167Z,0.50
2023-05-09T22:34:41.797Z,0.50
2023-05-09T22:37:09.892Z,0.53
2023-05-09T22:39:37.558Z,1.60
2023-05-09T22:42:09.268Z,1.33
2023-05-09T22:44:36.903Z,0.60
2023-05-09T22:47:04.595Z,3.10
2023-05-09T22:49:32.307Z,1.23
2023-05-09T22:51:59.932Z,1.90
2023-05-09T22:54:27.571Z,0.77
2023-05-09T22:56:55.192Z,1.13
2023-05-09T22:59:24.120Z,3.23
2023-05-09T23:01:52.700Z,2.10
2023-05-09T23:04:20.535Z,1.03
2023-05-09T23:06:48.189Z,1.90
2023-05-09T23:09:15.875Z,1.13
2023-05-09T23:11:43.556Z,2.23
2023-05-09T23:14:11.270Z,0.40
2023-05-09T23:16:40.198Z,0.30
2023-05-09T23:19:08.045Z,1.80
2023-05-09T23:21:36.010Z,2.40
2023-05-09T23:24:03.914Z,1.40
2023-05-09T23:26:31.666Z,2.33
2023-05-09T23:28:59.225Z,0.70
2023-05-09T23:31:26.897Z,0.83
2023-05-09T23:33:56.255Z,0.73
2023-05-09T23:36:24.013Z,0.60
2023-05-09T23:38:52.225Z,0.53
2023-05-09T23:41:28.202Z,1.53
2023-05-09T23:43:58.001Z,5.17
2023-05-09T23:46:25.986Z,1.00
2023-05-09T23:48:54.000Z,1.53
2023-05-09T23:51:23.562Z,0.50
2023-05-09T23:53:51.584Z,0.90
2023-05-09T23:56:19.393Z,0.83
2023-05-09T23:58:47.268Z,3.10
